Time;durP1;ratioP1;P1;durP2;ratioP2;P2;SDS_P1;SDS_P2;PMS_P1;PMS_P2;Temp;Humidity;BMP_temperature;BMP_pressure;BME280_temperature;BME280_humidity;BME280_pressure;Samples;Min_cycle;Max_cycle;Signal;HPM_P1;HPM_P2
2022/04/21 00:00:25;;;;;;;14.82;11.07;;;5.20;99.90;;;;;;5099653;28;20123;-89
2022/04/21 00:02:51;;;;;;;14.68;11.48;;;5.20;99.90;;;;;;5083130;28;20066;-89
2022/04/21 00:05:17;;;;;;;18.52;12.40;;;5.20;99.90;;;;;;5099469;28;20024;-89
2022/04/21 00:07:46;;;;;;;16.83;11.93;;;5.10;99.90;;;;;;5099106;28;20027;-89
2022/04/21 00:10:12;;;;;;;15.65;11.98;;;5.10;99.90;;;;;;5117521;28;20034;-89
2022/04/21 00:12:42;;;;;;;15.65;11.68;;;5.10;99.90;;;;;;5117889;28;20032;-89
2022/04/21 00:15:09;;;;;;;18.77;13.63;;;5.10;99.90;;;;;;5099890;28;20061;-89
2022/04/21 00:17:36;;;;;;;15.32;11.90;;;5.00;99.90;;;;;;5098494;28;20291;-89
2022/04/21 00:20:02;;;;;;;17.70;13.07;;;5.00;99.90;;;;;;5099348;28;20055;-89
2022/04/21 00:25:13;;;;;;;18.08;12.20;;;5.10;99.90;;;;;;5117766;28;20039;-89
2022/04/21 00:27:41;;;;;;;16.73;13.27;;;5.10;99.90;;;;;;5098962;28;20028;-87
2022/04/21 00:30:08;;;;;;;16.77;13.02;;;5.10;99.90;;;;;;5099300;28;20505;-88
2022/04/21 00:32:35;;;;;;;16.58;12.88;;;5.10;99.90;;;;;;5099449;28;20088;-89
2022/04/21 00:35:02;;;;;;;17.55;13.32;;;5.00;99.90;;;;;;5082206;28;20472;-89
2022/04/21 00:37:31;;;;;;;17.85;13.05;;;5.00;99.90;;;;;;5099615;28;20032;-89
2022/04/21 00:39:59;;;;;;;16.98;12.98;;;5.00;99.90;;;;;;5082084;28;20052;-89
2022/04/21 00:42:30;;;;;;;19.05;12.95;;;5.00;99.90;;;;;;5099135;28;20024;-89
2022/04/21 00:44:56;;;;;;;16.55;12.50;;;5.00;99.90;;;;;;5099075;28;20423;-89
2022/04/21 00:47:22;;;;;;;22.48;13.85;;;5.00;99.90;;;;;;5098409;28;20028;-89
2022/04/21 00:49:48;;;;;;;18.15;13.45;;;5.00;99.90;;;;;;5081871;28;20083;-89
2022/04/21 00:52:15;;;;;;;19.88;14.05;;;5.00;99.90;;;;;;5098457;28;20098;-89
2022/04/21 00:54:42;;;;;;;14.95;11.88;;;4.90;99.90;;;;;;5115459;28;20024;-89
2022/04/21 00:57:09;;;;;;;18.35;13.05;;;4.80;99.90;;;;;;5082088;28;20023;-89
2022/04/21 00:59:35;;;;;;;17.58;12.98;;;4.90;99.90;;;;;;5098837;28;20022;-89
2022/04/21 01:05:04;;;;;;;17.08;12.63;;;4.80;99.90;;;;;;5054287;28;20024;-89
2022/04/21 01:07:32;;;;;;;18.13;12.90;;;4.70;99.90;;;;;;5086146;28;20040;-89
2022/04/21 01:09:58;;;;;;;18.25;13.90;;;4.70;99.90;;;;;;5116092;28;20478;-89
2022/04/21 01:12:24;;;;;;;17.63;13.25;;;4.70;99.90;;;;;;5098340;28;20035;-89
2022/04/21 01:14:52;;;;;;;20.52;14.93;;;4.80;99.90;;;;;;5098153;28;20478;-89
2022/04/21 01:17:33;;;;;;;19.92;14.30;;;4.70;99.90;;;;;;5095432;28;20522;-89
2022/04/21 01:20:00;;;;;;;23.70;13.77;;;4.70;99.90;;;;;;5116664;28;20081;-89
2022/04/21 01:22:28;;;;;;;19.98;14.60;;;4.70;99.90;;;;;;5098193;28;20031;-89
2022/04/21 01:24:55;;;;;;;20.05;13.68;;;4.70;99.90;;;;;;5098346;28;20080;-89
2022/04/21 01:27:23;;;;;;;18.35;14.15;;;4.70;99.90;;;;;;5081434;28;20114;-89
2022/04/21 01:29:50;;;;;;;18.17;14.02;;;4.70;99.90;;;;;;5081217;28;20044;-89
2022/04/21 01:32:16;;;;;;;18.02;14.40;;;4.70;99.90;;;;;;5116080;28;20035;-89
2022/04/21 01:34:43;;;;;;;20.88;15.27;;;4.80;99.90;;;;;;5098012;28;20016;-89
2022/04/21 01:42:39;;;;;;;28.00;18.92;;;4.70;99.90;;;;;;5115948;28;20033;-89
2022/04/21 01:45:06;;;;;;;26.45;18.33;;;4.70;99.90;;;;;;5115466;28;20028;-89
2022/04/21 01:47:33;;;;;;;25.13;17.25;;;4.70;99.90;;;;;;5080909;28;20023;-89
2022/04/21 01:49:58;;;;;;;20.75;15.13;;;4.70;99.90;;;;;;5097852;28;20032;-89
2022/04/21 01:52:26;;;;;;;18.40;14.45;;;4.80;99.90;;;;;;5097410;28;20023;-89
2022/04/21 01:54:51;;;;;;;22.25;15.52;;;4.70;99.90;;;;;;5115621;28;20020;-89
2022/04/21 01:57:19;;;;;;;23.13;15.48;;;4.80;99.90;;;;;;5080568;28;20035;-89
2022/04/21 01:59:49;;;;;;;17.20;13.77;;;4.80;99.90;;;;;;5115721;28;20031;-89
2022/04/21 02:02:17;;;;;;;20.13;14.43;;;4.90;99.90;;;;;;5115387;28;20030;-89
2022/04/21 02:04:42;;;;;;;17.90;13.82;;;4.90;99.90;;;;;;5097370;28;20110;-89
2022/04/21 02:07:08;;;;;;;19.50;14.23;;;4.90;99.90;;;;;;5114206;28;20131;-88
2022/04/21 02:09:34;;;;;;;17.10;13.65;;;4.90;99.90;;;;;;5115483;28;20363;-89
2022/04/21 02:12:00;;;;;;;20.27;15.77;;;5.00;99.90;;;;;;5096999;28;20089;-89
2022/04/21 02:14:27;;;;;;;22.00;15.70;;;5.00;99.90;;;;;;5096874;28;20111;-89
2022/04/21 02:16:54;;;;;;;21.17;15.30;;;5.00;99.90;;;;;;5097338;28;20016;-89
2022/04/21 02:19:20;;;;;;;20.05;14.90;;;5.00;99.90;;;;;;5097443;28;20137;-89
2022/04/21 02:21:45;;;;;;;17.75;13.70;;;5.10;99.90;;;;;;5080127;28;20051;-89
2022/04/21 02:24:11;;;;;;;21.48;15.40;;;5.10;99.90;;;;;;5096791;28;20031;-89
2022/04/21 02:26:37;;;;;;;21.17;15.05;;;5.10;99.90;;;;;;5096741;28;20045;-89
2022/04/21 02:29:05;;;;;;;22.00;16.80;;;5.10;99.90;;;;;;5096855;28;20055;-89
2022/04/21 02:31:30;;;;;;;24.13;16.73;;;5.10;99.90;;;;;;5096911;28;20045;-89
2022/04/21 02:33:57;;;;;;;29.52;22.00;;;5.10;99.90;;;;;;5097256;28;20034;-89
2022/04/21 02:36:23;;;;;;;34.25;25.50;;;5.20;99.90;;;;;;5096662;28;20106;-89
2022/04/21 02:38:50;;;;;;;37.83;27.17;;;5.20;99.90;;;;;;5096999;28;20475;-90
2022/04/21 02:41:16;;;;;;;35.78;26.38;;;5.20;99.90;;;;;;5097056;28;20036;-89
2022/04/21 02:43:43;;;;;;;32.05;24.13;;;5.20;99.90;;;;;;5114836;28;20028;-89
2022/04/21 02:46:09;;;;;;;33.53;22.50;;;5.10;99.90;;;;;;5096426;28;20410;-89
2022/04/21 02:48:35;;;;;;;25.85;19.30;;;5.10;99.90;;;;;;5080154;28;20060;-89
2022/04/21 02:51:01;;;;;;;24.95;18.42;;;5.20;99.90;;;;;;5096639;28;20031;-89
2022/04/21 02:59:00;;;;;;;22.75;16.23;;;5.20;99.90;;;;;;5114887;28;20027;-89
2022/04/21 03:01:26;;;;;;;24.00;16.45;;;5.30;99.90;;;;;;5114826;28;20019;-89
2022/04/21 03:03:54;;;;;;;29.52;18.30;;;5.30;99.90;;;;;;5114312;28;20077;-89
2022/04/21 03:06:20;;;;;;;24.38;17.75;;;5.30;99.90;;;;;;5097176;28;20033;-89
2022/04/21 03:08:49;;;;;;;27.55;18.75;;;5.30;99.90;;;;;;5096425;28;20119;-89
2022/04/21 03:11:14;;;;;;;25.38;17.45;;;5.40;99.90;;;;;;5096639;28;20031;-89
2022/04/21 03:13:40;;;;;;;25.83;17.98;;;5.40;99.90;;;;;;5096406;28;20020;-88
2022/04/21 03:16:07;;;;;;;24.90;17.45;;;5.40;99.90;;;;;;5096681;28;20030;-88
2022/04/21 03:18:33;;;;;;;21.92;16.48;;;5.50;99.90;;;;;;5098028;28;20023;-89
2022/04/21 03:26:30;;;;;;;19.35;15.05;;;5.50;99.90;;;;;;5118845;28;20119;-89
2022/04/21 03:28:56;;;;;;;21.77;15.15;;;5.50;99.90;;;;;;5096343;28;20036;-89
2022/04/21 03:31:23;;;;;;;22.75;16.17;;;5.60;99.90;;;;;;5096671;28;20028;-89
2022/04/21 03:33:50;;;;;;;22.73;17.25;;;5.60;99.90;;;;;;5097066;28;20103;-89
2022/04/21 03:36:16;;;;;;;24.63;16.48;;;5.70;99.90;;;;;;5096824;28;20024;-89
2022/04/21 03:38:43;;;;;;;26.40;18.15;;;5.60;99.90;;;;;;5096503;28;20017;-89
2022/04/21 03:41:10;;;;;;;28.02;18.80;;;5.60;99.90;;;;;;5096779;28;20394;-89
2022/04/21 03:43:37;;;;;;;25.35;17.55;;;5.60;99.90;;;;;;5097014;28;20031;-89
2022/04/21 03:46:02;;;;;;;24.80;16.65;;;5.60;99.90;;;;;;5098105;28;20028;-89
2022/04/21 03:48:29;;;;;;;27.15;17.00;;;5.60;99.90;;;;;;5096754;28;20032;-89
2022/04/21 03:50:56;;;;;;;24.60;16.20;;;5.70;99.90;;;;;;5097823;28;20032;-89
2022/04/21 03:53:22;;;;;;;22.17;15.75;;;5.70;99.90;;;;;;5097791;28;20048;-88
2022/04/21 03:55:49;;;;;;;18.38;14.63;;;5.70;99.90;;;;;;5097495;28;20027;-88
2022/04/21 03:58:18;;;;;;;19.73;15.13;;;5.80;99.90;;;;;;5097602;28;20028;-88
2022/04/21 04:00:44;;;;;;;16.00;13.70;;;5.80;99.90;;;;;;5097746;28;20052;-89
2022/04/21 04:03:10;;;;;;;21.13;15.57;;;5.90;99.90;;;;;;5097033;28;20032;-89
2022/04/21 04:05:35;;;;;;;20.35;14.88;;;5.90;99.90;;;;;;5096222;28;20170;-88
2022/04/21 04:10:52;;;;;;;20.25;14.95;;;6.00;99.90;;;;;;5097417;28;20528;-88
2022/04/21 04:13:20;;;;;;;18.85;14.35;;;6.00;99.90;;;;;;5096519;28;20063;-88
2022/04/21 04:15:49;;;;;;;23.45;16.25;;;6.10;99.90;;;;;;5096237;28;20036;-89
2022/04/21 04:18:19;;;;;;;21.70;15.93;;;6.10;99.90;;;;;;5079750;28;20078;-88
2022/04/21 04:20:46;;;;;;;21.10;15.15;;;6.20;99.90;;;;;;5096140;28;20024;-89
2022/04/21 04:23:15;;;;;;;20.90;15.82;;;6.20;99.90;;;;;;5096042;28;20386;-89
2022/04/21 04:25:41;;;;;;;22.23;16.70;;;6.20;99.90;;;;;;5095806;28;20091;-88
2022/04/21 04:28:07;;;;;;;25.02;17.88;;;6.20;99.90;;;;;;5095706;28;20060;-88
2022/04/21 04:30:32;;;;;;;26.10;18.30;;;6.20;99.90;;;;;;5096247;28;20032;-88
2022/04/21 04:32:58;;;;;;;22.08;16.50;;;6.30;99.90;;;;;;5095835;28;20089;-89
2022/04/21 04:35:25;;;;;;;19.80;15.85;;;6.30;99.90;;;;;;5095897;28;20111;-89
2022/04/21 04:37:52;;;;;;;23.45;16.60;;;6.30;99.90;;;;;;5095916;28;20020;-89
2022/04/21 04:40:18;;;;;;;21.38;15.32;;;6.30;99.90;;;;;;5095659;28;20431;-88
2022/04/21 04:42:44;;;;;;;18.30;14.77;;;6.40;99.90;;;;;;5096960;28;20103;-89
2022/04/21 04:47:55;;;;;;;20.25;15.40;;;6.30;99.90;;;;;;5097021;28;20031;-89
2022/04/21 04:50:21;;;;;;;19.10;13.85;;;6.40;99.90;;;;;;5095372;28;20024;-89
2022/04/21 04:52:49;;;;;;;22.10;14.98;;;6.40;99.90;;;;;;5095459;28;20031;-89
2022/04/21 04:55:15;;;;;;;20.40;15.50;;;6.50;99.90;;;;;;5096739;28;20402;-89
2022/04/21 04:57:41;;;;;;;19.58;14.63;;;6.50;99.90;;;;;;5096399;28;20031;-89
2022/04/21 05:00:08;;;;;;;21.05;15.77;;;6.50;99.90;;;;;;5095390;28;20040;-89
2022/04/21 05:02:34;;;;;;;17.95;13.75;;;6.50;99.90;;;;;;5096277;28;20035;-89
2022/04/21 05:05:00;;;;;;;17.95;13.68;;;6.60;99.90;;;;;;5095267;28;20031;-89
2022/04/21 05:07:26;;;;;;;21.50;13.85;;;6.50;99.90;;;;;;5095254;28;20058;-89
2022/04/21 05:09:53;;;;;;;20.42;14.27;;;6.60;99.90;;;;;;5096320;28;20059;-88
2022/04/21 05:12:18;;;;;;;21.55;15.13;;;6.50;99.90;;;;;;5096237;28;20032;-88
2022/04/21 05:14:44;;;;;;;17.63;12.90;;;6.50;99.90;;;;;;5094955;28;20043;-88
2022/04/21 05:17:10;;;;;;;18.95;14.65;;;6.50;99.90;;;;;;5094926;28;20048;-88
2022/04/21 05:19:36;;;;;;;17.88;13.45;;;6.50;99.90;;;;;;5096038;28;20111;-89
2022/04/21 05:22:04;;;;;;;21.23;14.10;;;6.60;99.90;;;;;;5094675;28;20370;-88
2022/04/21 05:24:31;;;;;;;19.25;13.77;;;6.60;99.90;;;;;;5094778;28;20028;-88
2022/04/21 05:26:57;;;;;;;19.92;14.88;;;6.70;99.90;;;;;;5094743;28;20031;-88
2022/04/21 05:32:08;;;;;;;20.88;14.77;;;6.90;99.90;;;;;;5095849;28;20081;-89
2022/04/21 05:34:34;;;;;;;18.67;14.05;;;6.90;99.90;;;;;;5094673;28;20020;-88
2022/04/21 05:37:02;;;;;;;16.48;12.70;;;7.00;99.90;;;;;;5095961;28;20016;-88
2022/04/21 05:39:29;;;;;;;17.63;13.90;;;7.00;99.90;;;;;;5093844;28;20040;-88
2022/04/21 05:41:57;;;;;;;16.77;14.18;;;6.90;99.90;;;;;;5095351;28;20024;-88
2022/04/21 05:44:23;;;;;;;17.35;13.45;;;7.00;99.90;;;;;;5094328;28;20051;-89
2022/04/21 05:46:49;;;;;;;17.60;13.23;;;7.00;99.90;;;;;;5094183;28;20470;-88
2022/04/21 05:49:17;;;;;;;18.58;14.25;;;7.10;99.90;;;;;;5094362;28;20031;-89
2022/04/21 05:51:46;;;;;;;18.23;13.60;;;7.30;99.90;;;;;;5095233;28;20020;-89
2022/04/21 05:54:12;;;;;;;16.10;12.75;;;7.60;99.90;;;;;;5094233;28;20019;-89
2022/04/21 05:56:38;;;;;;;18.13;12.82;;;7.80;99.90;;;;;;5094244;28;20024;-88
2022/04/21 05:59:04;;;;;;;17.50;13.95;;;8.00;99.90;;;;;;5095399;28;20505;-88
2022/04/21 06:01:30;;;;;;;14.77;12.50;;;8.20;99.90;;;;;;5094074;28;20155;-88
2022/04/21 06:03:56;;;;;;;17.25;13.00;;;8.30;99.90;;;;;;5094404;28;20024;-89
2022/04/21 06:06:22;;;;;;;18.08;13.45;;;8.30;99.90;;;;;;5094067;28;20050;-89
2022/04/21 06:08:48;;;;;;;17.23;13.93;;;8.40;99.90;;;;;;5093932;28;20066;-89
2022/04/21 06:11:14;;;;;;;17.90;13.50;;;8.40;99.90;;;;;;5093829;28;20060;-90
2022/04/21 06:13:43;;;;;;;17.20;13.07;;;8.50;99.90;;;;;;5093960;28;20103;-90
2022/04/21 06:16:09;;;;;;;16.10;12.98;;;8.60;99.90;;;;;;5095146;28;20020;-89
2022/04/21 06:18:36;;;;;;;16.52;13.80;;;8.60;99.90;;;;;;5094690;28;20017;-89
2022/04/21 06:21:03;;;;;;;19.75;16.92;;;8.60;99.90;;;;;;5093763;28;20059;-89
2022/04/21 06:23:30;;;;;;;17.88;14.25;;;8.50;99.90;;;;;;5094960;28;20058;-88
2022/04/21 06:25:59;;;;;;;17.08;13.77;;;8.50;99.90;;;;;;5093819;28;20036;-90
2022/04/21 06:28:25;;;;;;;17.25;14.48;;;8.60;99.90;;;;;;5093495;28;20509;-87
2022/04/21 06:30:51;;;;;;;19.70;15.70;;;8.60;99.90;;;;;;5093872;28;20071;-89
2022/04/21 06:33:18;;;;;;;16.40;14.27;;;8.70;99.90;;;;;;5093671;28;20024;-88
2022/04/21 06:35:46;;;;;;;19.45;14.73;;;8.90;99.90;;;;;;5093865;28;20546;-88
2022/04/21 06:38:12;;;;;;;20.48;15.65;;;8.80;99.90;;;;;;5093594;28;20073;-88
2022/04/21 06:40:38;;;;;;;26.55;19.23;;;8.70;99.90;;;;;;5093474;28;20024;-88
2022/04/21 06:48:35;;;;;;;20.52;15.95;;;8.60;99.90;;;;;;5094796;28;20107;-88
2022/04/21 06:51:01;;;;;;;18.75;14.80;;;8.80;99.90;;;;;;5094413;28;20073;-89
2022/04/21 06:53:26;;;;;;;19.42;14.70;;;8.90;99.90;;;;;;5092809;28;20024;-88
2022/04/21 06:55:52;;;;;;;17.25;13.45;;;8.90;99.90;;;;;;5093312;28;20027;-90
2022/04/21 06:58:18;;;;;;;15.32;13.02;;;9.00;99.90;;;;;;5093222;28;20031;-88
2022/04/21 07:00:44;;;;;;;18.83;12.95;;;9.10;99.90;;;;;;5093447;28;20048;-88
2022/04/21 07:03:09;;;;;;;17.33;12.88;;;9.10;99.90;;;;;;5093341;28;20398;-88
2022/04/21 07:05:35;;;;;;;25.17;14.25;;;9.10;99.90;;;;;;5094505;28;20064;-88
2022/04/21 07:08:01;;;;;;;19.20;13.63;;;9.00;99.90;;;;;;5094209;28;20077;-89
2022/04/21 07:10:27;;;;;;;18.23;13.18;;;8.90;99.90;;;;;;5093271;28;20028;-88
2022/04/21 07:12:52;;;;;;;16.90;12.90;;;8.90;99.90;;;;;;5093069;28;20217;-88
2022/04/21 07:15:18;;;;;;;32.72;15.65;;;9.00;99.90;;;;;;5093050;28;20024;-89
2022/04/21 07:17:44;;;;;;;41.15;19.52;;;9.00;99.90;;;;;;5093423;28;20032;-88
2022/04/21 07:20:12;;;;;;;52.10;22.02;;;8.90;99.90;;;;;;5093259;28;20020;-89
2022/04/21 07:22:38;;;;;;;49.42;21.23;;;8.80;99.90;;;;;;5093209;28;20110;-89
2022/04/21 07:25:07;;;;;;;33.25;16.52;;;8.80;99.90;;;;;;5093070;28;20028;-89
2022/04/21 07:27:33;;;;;;;35.58;16.90;;;8.70;99.90;;;;;;5093029;28;20050;-89
2022/04/21 07:30:00;;;;;;;40.78;19.02;;;8.70;99.90;;;;;;5092837;28;20054;-88
2022/04/21 07:32:26;;;;;;;57.25;23.10;;;8.60;99.90;;;;;;5093095;28;20027;-88
2022/04/21 07:34:51;;;;;;;43.85;19.33;;;8.70;99.90;;;;;;5093200;28;20020;-88
2022/04/21 07:37:17;;;;;;;34.45;17.95;;;8.80;99.90;;;;;;5093253;28;20485;-88
2022/04/21 07:39:43;;;;;;;26.73;15.60;;;8.80;99.90;;;;;;5092822;28;20024;-89
2022/04/21 07:42:10;;;;;;;25.20;15.60;;;8.90;99.90;;;;;;5092868;28;20052;-88
2022/04/21 07:44:36;;;;;;;17.95;12.80;;;8.90;99.90;;;;;;5092998;28;20028;-88
2022/04/21 07:47:04;;;;;;;20.75;13.23;;;8.90;99.90;;;;;;5092799;28;20105;-88
2022/04/21 07:49:48;;;;;;;20.35;13.38;;;8.80;99.90;;;;;;5092525;28;20032;-89
2022/04/21 07:55:15;;;;;;;24.17;15.73;;;8.70;99.90;;;;;;5094171;28;20501;-87
2022/04/21 07:57:42;;;;;;;31.42;15.98;;;8.70;99.90;;;;;;5093820;28;20031;-88
2022/04/21 08:00:08;;;;;;;23.52;15.23;;;8.80;99.90;;;;;;5092909;28;20036;-88
2022/04/21 08:02:34;;;;;;;27.00;15.27;;;8.80;99.90;;;;;;5093097;28;20028;-88
2022/04/21 08:05:00;;;;;;;32.85;16.60;;;9.00;99.90;;;;;;5093034;28;20039;-88
2022/04/21 08:07:26;;;;;;;30.63;16.02;;;9.00;99.90;;;;;;5097470;28;20035;-88
2022/04/21 08:09:51;;;;;;;33.05;16.67;;;9.00;99.90;;;;;;5097249;28;20112;-88
2022/04/21 08:12:17;;;;;;;28.10;16.10;;;9.10;99.90;;;;;;5096973;28;20035;-87
2022/04/21 08:14:43;;;;;;;39.75;16.98;;;9.20;99.90;;;;;;5096101;28;20023;-90
2022/04/21 08:17:09;;;;;;;30.05;15.80;;;9.20;99.90;;;;;;5096167;28;20108;-88
2022/04/21 08:19:35;;;;;;;23.30;14.13;;;9.30;99.90;;;;;;5096171;28;20044;-89
2022/04/21 08:22:01;;;;;;;26.98;13.68;;;9.30;99.90;;;;;;5096016;28;20449;-88
2022/04/21 08:32:43;;;;;;;16.95;13.15;;;9.20;99.90;;;;;;5117889;28;20084;-88
2022/04/21 08:35:13;;;;;;;16.42;13.02;;;9.20;99.90;;;;;;5099338;28;20027;-89
2022/04/21 08:37:45;;;;;;;22.27;15.02;;;9.10;99.90;;;;;;5099063;28;20170;-88
2022/04/21 08:40:11;;;;;;;28.73;16.30;;;9.00;99.90;;;;;;5099094;28;20023;-88
2022/04/21 08:42:41;;;;;;;36.45;18.13;;;8.90;99.90;;;;;;5098928;28;20039;-88
2022/04/21 08:45:12;;;;;;;30.58;16.98;;;8.80;99.90;;;;;;5098952;28;20124;-88
2022/04/21 08:47:46;;;;;;;26.98;16.75;;;8.70;99.90;;;;;;5098881;28;20023;-88
2022/04/21 08:50:14;;;;;;;29.77;16.98;;;8.60;99.90;;;;;;5116765;28;20027;-89
2022/04/21 08:52:41;;;;;;;31.27;17.80;;;8.40;99.90;;;;;;5098909;28;20108;-89
2022/04/21 08:55:11;;;;;;;25.70;16.67;;;8.30;99.90;;;;;;5099010;28;20030;-89
2022/04/21 08:57:38;;;;;;;29.52;18.90;;;8.20;99.90;;;;;;5098733;28;20019;-88
2022/04/21 09:00:06;;;;;;;34.67;20.52;;;8.10;99.90;;;;;;5098781;28;20035;-88
2022/04/21 09:02:42;;;;;;;40.03;20.42;;;8.00;99.90;;;;;;5098777;28;20023;-88
2022/04/21 09:05:09;;;;;;;38.28;23.77;;;7.90;99.90;;;;;;5098563;28;20026;-88
2022/04/21 09:07:46;;;;;;;35.00;22.98;;;7.80;99.90;;;;;;5098393;28;20478;-88
2022/04/21 09:10:13;;;;;;;39.67;22.13;;;7.70;99.90;;;;;;5098274;28;20055;-89
2022/04/21 09:12:52;;;;;;;53.53;24.98;;;7.70;99.90;;;;;;5098581;28;20061;-89
2022/04/21 09:15:19;;;;;;;41.55;21.35;;;7.80;99.90;;;;;;5098189;28;20026;-88
2022/04/21 09:17:47;;;;;;;39.55;19.67;;;7.70;99.90;;;;;;5097898;28;20019;-89
2022/04/21 09:20:16;;;;;;;31.35;17.70;;;7.70;99.90;;;;;;5116222;28;20024;-89
2022/04/21 09:22:53;;;;;;;22.13;16.10;;;7.70;99.90;;;;;;5098193;28;20032;-88
2022/04/21 09:25:44;;;;;;;18.98;15.15;;;7.80;99.90;;;;;;5098095;28;20105;-88
2022/04/21 09:28:23;;;;;;;19.40;14.40;;;7.80;99.90;;;;;;5098214;28;20035;-88
2022/04/21 09:30:55;;;;;;;16.58;13.55;;;7.90;99.90;;;;;;5116198;28;20386;-89
2022/04/21 09:33:32;;;;;;;16.10;11.82;;;8.10;99.90;;;;;;5097965;28;20549;-88
2022/04/21 09:35:59;;;;;;;14.27;12.25;;;8.50;99.90;;;;;;5098030;28;20028;-90
2022/04/21 09:38:25;;;;;;;13.35;11.20;;;9.00;99.90;;;;;;5098007;28;20019;-88
2022/04/21 09:40:51;;;;;;;12.98;11.25;;;9.30;99.90;;;;;;5097993;28;20031;-89
2022/04/21 09:43:28;;;;;;;13.10;10.75;;;9.60;99.90;;;;;;5097830;28;20077;-91
2022/04/21 09:46:10;;;;;;;15.63;11.30;;;10.00;99.90;;;;;;5097881;28;20019;-92
2022/04/21 09:48:36;;;;;;;16.17;11.55;;;10.20;99.90;;;;;;5098126;28;20031;-90
2022/04/21 09:51:13;;;;;;;12.93;10.07;;;10.40;99.90;;;;;;5097604;28;20028;-90
2022/04/21 09:53:53;;;;;;;13.32;10.27;;;10.50;99.90;;;;;;5097531;28;20027;-89
2022/04/21 09:56:32;;;;;;;9.82;8.23;;;10.70;99.90;;;;;;5115668;28;20045;-91
2022/04/21 09:59:04;;;;;;;8.52;7.60;;;10.60;99.90;;;;;;5097754;28;20024;-90
2022/04/21 10:01:33;;;;;;;9.07;7.68;;;10.60;99.90;;;;;;5097951;28;20466;-91
2022/04/21 10:04:00;;;;;;;9.05;6.50;;;10.70;99.90;;;;;;5097455;28;20028;-91
2022/04/21 10:06:26;;;;;;;5.07;4.60;;;10.80;99.90;;;;;;5097392;28;20103;-89
2022/04/21 10:08:52;;;;;;;4.32;3.92;;;10.90;99.90;;;;;;5097321;28;20027;-91
2022/04/21 10:11:24;;;;;;;6.38;5.75;;;11.20;99.90;;;;;;5114291;28;20363;-87
2022/04/21 10:13:55;;;;;;;7.30;5.93;;;11.30;99.10;;;;;;5097455;28;20484;-89
2022/04/21 10:16:21;;;;;;;;;;;11.40;98.70;;;;;;5115953;28;20027;-89
2022/04/21 10:19:00;;;;;;;9.25;6.70;;;11.50;98.60;;;;;;5097386;28;19903;-88
2022/04/21 10:21:36;;;;;;;14.20;7.20;;;11.50;98.00;;;;;;5097286;28;20058;-89
2022/04/21 10:24:03;;;;;;;8.38;5.90;;;11.60;97.80;;;;;;5097318;28;20020;-87
2022/04/21 10:26:41;;;;;;;15.98;7.63;;;11.50;97.60;;;;;;5096915;28;20031;-89
2022/04/21 10:29:10;;;;;;;38.42;13.10;;;11.40;97.60;;;;;;5095981;28;20119;-89
2022/04/21 10:31:45;;;;;;;34.25;11.77;;;11.20;97.30;;;;;;5115214;28;20031;-89
2022/04/21 10:34:46;;;;;;;34.45;12.27;;;11.10;97.30;;;;;;5115142;28;20016;-89
2022/04/21 10:37:31;;;;;;;24.50;9.38;;;10.90;97.50;;;;;;5097112;28;20026;-89
2022/04/21 10:40:11;;;;;;;24.98;9.50;;;10.80;97.70;;;;;;5115126;28;20051;-88
2022/04/21 10:42:51;;;;;;;20.45;8.27;;;10.70;97.60;;;;;;5096698;28;20027;-88
2022/04/21 10:45:37;;;;;;;4.75;4.22;;;10.60;97.30;;;;;;5096772;28;20023;-89
2022/04/21 10:48:12;;;;;;;5.03;3.90;;;10.60;97.00;;;;;;5114662;28;20039;-88
2022/04/21 10:50:42;;;;;;;4.55;3.83;;;10.60;96.90;;;;;;5096649;28;20028;-88
2022/04/21 10:58:39;;;;;;;5.10;4.60;;;10.80;97.10;;;;;;5115245;28;20079;-89
2022/04/21 11:01:28;;;;;;;5.05;4.45;;;11.00;96.80;;;;;;5096616;28;20031;-88
2022/04/21 11:04:19;;;;;;;7.63;4.78;;;11.00;96.60;;;;;;5096441;28;20030;-89
2022/04/21 11:06:51;;;;;;;19.52;7.10;;;11.10;96.10;;;;;;5096918;28;20031;-89
2022/04/21 11:09:36;;;;;;;15.45;7.25;;;11.10;96.30;;;;;;5114729;28;20030;-89
2022/04/21 11:12:04;;;;;;;7.47;5.03;;;11.10;96.20;;;;;;5096659;28;20042;-89
2022/04/21 11:14:32;;;;;;;10.38;5.32;;;11.10;95.60;;;;;;5096580;28;20073;-89
2022/04/21 11:17:00;;;;;;;7.38;5.30;;;11.00;96.30;;;;;;5114530;28;20098;-89
2022/04/21 11:19:51;;;;;;;9.02;5.32;;;11.10;96.30;;;;;;5114664;28;20020;-89
2022/04/21 11:22:39;;;;;;;9.98;5.43;;;11.10;96.00;;;;;;5096631;28;20042;-89
2022/04/21 11:25:06;;;;;;;11.45;6.10;;;11.40;96.10;;;;;;5096426;28;20024;-89
2022/04/21 11:27:34;;;;;;;13.75;6.55;;;11.50;95.80;;;;;;5114512;28;20026;-89
2022/04/21 11:30:08;;;;;;;21.35;8.25;;;11.70;95.10;;;;;;5114205;28;20096;-89
2022/04/21 11:32:34;;;;;;;22.98;8.98;;;11.60;95.40;;;;;;5096496;28;20393;-89
2022/04/21 11:35:03;;;;;;;32.70;11.90;;;11.50;95.10;;;;;;5096298;28;20020;-88
2022/04/21 11:37:58;;;;;;;40.58;13.43;;;11.30;95.10;;;;;;5096498;28;20027;-89
2022/04/21 11:40:37;;;;;;;28.60;10.75;;;11.20;95.50;;;;;;5099075;28;20031;-89
2022/04/21 11:43:17;;;;;;;13.48;7.25;;;11.10;95.90;;;;;;5100344;28;20028;-90
2022/04/21 11:45:57;;;;;;;7.03;5.63;;;11.10;96.00;;;;;;5100204;28;20034;-90
2022/04/21 11:48:29;;;;;;;;;;;11.00;96.80;;;;;;5118583;28;20031;-89
2022/04/21 11:50:55;;;;;;;11.07;8.63;;;10.80;98.20;;;;;;5099991;28;20274;-89
2022/04/21 11:53:20;;;;;;;10.88;8.45;;;10.70;98.40;;;;;;5100113;28;20023;-89
2022/04/21 11:55:48;;;;;;;9.02;7.65;;;10.50;99.10;;;;;;5099904;28;20114;-89
2022/04/21 11:58:29;;;;;;;7.63;6.85;;;10.40;99.30;;;;;;5100023;28;20481;-90
2022/04/21 12:06:44;;;;;;;10.02;8.30;;;9.90;99.90;;;;;;5118218;28;20041;-90
2022/04/21 12:09:20;;;;;;;11.38;7.30;;;9.80;99.90;;;;;;5099781;28;20019;-89
2022/04/21 12:11:54;;;;;;;16.33;7.97;;;9.70;99.90;;;;;;5099748;28;20065;-89
2022/04/21 12:14:20;;;;;;;17.67;8.57;;;9.70;99.90;;;;;;5099641;28;20045;-89
2022/04/21 12:16:52;;;;;;;19.98;10.00;;;9.80;99.90;;;;;;5099867;28;20080;-89
2022/04/21 12:19:26;;;;;;;36.20;13.02;;;10.20;99.90;;;;;;5099568;28;20030;-89
2022/04/21 12:21:56;;;;;;;47.00;16.42;;;10.70;99.90;;;;;;5099412;28;20020;-89
2022/04/21 12:24:31;;;;;;;51.03;17.83;;;11.10;99.90;;;;;;5099594;28;20020;-89
2022/04/21 12:26:57;;;;;;;52.38;17.63;;;11.30;99.90;;;;;;5096253;28;20031;-89
2022/04/21 12:29:23;;;;;;;68.22;23.52;;;11.60;99.90;;;;;;5099087;28;20371;-90
2022/04/21 12:31:54;;;;;;;68.68;28.02;;;12.20;99.90;;;;;;5099097;28;20032;-89
2022/04/21 12:34:22;;;;;;;59.40;21.15;;;12.80;99.10;;;;;;5099146;28;20073;-90
2022/04/21 12:36:56;;;;;;;51.85;21.80;;;13.00;97.70;;;;;;5117357;28;20019;-90
2022/04/21 12:39:23;;;;;;;42.90;18.65;;;13.10;97.30;;;;;;5099041;28;20015;-90
2022/04/21 12:41:50;;;;;;;35.10;16.60;;;13.00;96.30;;;;;;5099406;28;20164;-89
2022/04/21 12:44:18;;;;;;;37.72;15.30;;;12.60;95.60;;;;;;5099140;28;20035;-89
2022/04/21 12:47:11;;;;;;;39.97;15.50;;;12.30;95.90;;;;;;5099087;28;20030;-90
2022/04/21 12:50:00;;;;;;;38.72;14.65;;;11.90;95.70;;;;;;5098883;28;20097;-90
2022/04/21 12:52:36;;;;;;;39.90;16.02;;;11.40;96.20;;;;;;5097918;28;20067;-89
2022/04/21 12:55:05;;;;;;;21.90;10.85;;;11.10;96.60;;;;;;5098842;28;20072;-89
2022/04/21 12:57:30;;;;;;;15.35;10.48;;;10.90;96.90;;;;;;5099131;28;20375;-91
2022/04/21 12:59:57;;;;;;;9.05;7.32;;;10.80;97.70;;;;;;5098705;28;20027;-91
2022/04/21 13:02:23;;;;;;;10.10;7.30;;;11.00;99.20;;;;;;5116890;28;20024;-90
2022/04/21 13:04:49;;;;;;;11.30;9.15;;;11.60;98.50;;;;;;5098696;28;20059;-90
2022/04/21 13:07:15;;;;;;;8.57;7.05;;;11.90;98.30;;;;;;5116743;28;20094;-90
2022/04/21 13:09:41;;;;;;;10.15;6.80;;;12.20;98.00;;;;;;5098356;28;20028;-91
2022/04/21 13:12:08;;;;;;;8.73;5.95;;;12.50;96.80;;;;;;5115481;28;20032;-90
2022/04/21 13:14:34;;;;;;;7.03;5.45;;;12.80;96.50;;;;;;5098554;28;20115;-92
2022/04/21 13:17:00;;;;;;;8.00;5.35;;;13.10;95.50;;;;;;5098607;28;20445;-90
2022/04/21 13:19:26;;;;;;;7.85;5.53;;;13.00;95.10;;;;;;5098463;28;20023;-90
2022/04/21 13:21:57;;;;;;;6.03;4.72;;;13.10;94.20;;;;;;5116445;28;20023;-91
2022/04/21 13:24:24;;;;;;;4.38;3.60;;;13.00;94.00;;;;;;5098458;28;20419;-91
2022/04/21 13:26:54;;;;;;;5.32;4.43;;;12.80;93.30;;;;;;5098261;28;20062;-91
2022/04/21 13:29:23;;;;;;;5.65;4.22;;;12.40;93.70;;;;;;5098180;28;20431;-88
2022/04/21 13:34:50;;;;;;;5.53;4.95;;;11.40;96.10;;;;;;5116575;28;20496;-88
2022/04/21 13:37:16;;;;;;;5.32;4.63;;;11.00;97.60;;;;;;5098082;28;20106;-90
2022/04/21 13:39:42;;;;;;;7.47;6.68;;;10.80;98.50;;;;;;5097825;28;20020;-90
2022/04/21 13:42:08;;;;;;;6.85;5.80;;;10.50;99.50;;;;;;5097879;28;20016;-91
2022/04/21 13:44:34;;;;;;;5.50;4.75;;;10.30;99.90;;;;;;5098023;28;20030;-88
2022/04/21 13:47:00;;;;;;;6.32;4.80;;;10.20;99.90;;;;;;5097829;28;20386;-89